KELZ/ELZ METAR and TAF weather

Enter ICAO airport designator
Station Type Date Time Source
KELZ METAR 2019/06/16 06:56 UTC NOAA

KELZ 160656Z AUTO 21004KT 10SM OVC007 16/16 A2992 RMK AO2 CIG 006V010 SLP125 T01560156


Station Type Date Time Source
KELZ Decoded METAR 2019/06/16 06:56 UTC NOAA

WELLSVILLE MUNICIPAL AIRPORT, NY, United States (KELZ) 42-06N 077-60W 646M
Jun 16, 2019 - 02:56 AM EDT / 2019.06.16 0656 UTC
Wind: from the SSW (210 degrees) at 5 MPH (4 KT):0
Visibility: 10 mile(s):0
Sky conditions: overcast
Temperature: 60.1 F (15.6 C)
Dew Point: 60.1 F (15.6 C)
Relative Humidity: 100%
Pressure (altimeter): 29.92 in. Hg (1013 hPa)
ob: KELZ 160656Z AUTO 21004KT 10SM OVC007 16/16 A2992 RMK AO2 CIG 006V010 SLP125 T01560156
cycle: 7

Station Type Date Time Source
KELZ TAF UTC NOAA

Error!

Example: see airport list